Time;durP1;ratioP1;P1;durP2;ratioP2;P2;SDS_P1;SDS_P2;PMS_P1;PMS_P2;Temp;Humidity;BMP_temperature;BMP_pressure;BME280_temperature;BME280_humidity;BME280_pressure;Samples;Min_cycle;Max_cycle;Signal;HPM_P1;HPM_P2
2022/01/26 00:08:36;;;;;;;12.45;6.50;;;-0.10;99.90;;;;;;6145601;28;20039;-80
2022/01/26 00:11:37;;;;;;;11.23;6.88;;;-1.30;99.90;;;;;;6129598;29;20411;-80
2022/01/26 00:14:42;;;;;;;14.95;7.20;;;-0.90;99.90;;;;;;6129194;28;20066;-85
2022/01/26 00:17:43;;;;;;;18.65;8.35;;;-1.10;99.90;;;;;;6130177;29;20122;-84
2022/01/26 00:20:57;;;;;;;18.65;8.50;;;-0.90;99.90;;;;;;6145181;28;20031;-82
2022/01/26 00:27:53;;;;;;;17.73;7.13;;;1.40;99.90;;;;;;6072526;29;20527;-82
2022/01/26 00:40:52;;;;;;;11.63;6.35;;;-0.40;99.90;;;;;;6061475;29;20044;-81
2022/01/26 00:43:56;;;;;;;12.00;7.65;;;-1.50;99.90;;;;;;6042133;29;20052;-80
2022/01/26 00:46:58;;;;;;;10.77;6.57;;;-0.30;99.90;;;;;;6041604;29;20093;-80
2022/01/26 00:50:04;;;;;;;11.55;6.30;;;0.40;99.90;;;;;;6034815;29;20036;-81
2022/01/26 00:53:05;;;;;;;10.68;6.38;;;0.90;99.90;;;;;;6057000;29;20502;-80
2022/01/26 00:56:05;;;;;;;13.45;6.10;;;-1.50;99.90;;;;;;6056659;29;20528;-81
2022/01/26 00:59:06;;;;;;;8.18;6.07;;;-0.60;99.90;;;;;;6105331;29;20039;-81
2022/01/26 01:02:07;;;;;;;11.27;6.85;;;-1.00;99.90;;;;;;6149279;29;20032;-81
2022/01/26 01:05:16;;;;;;;10.95;6.05;;;-2.80;99.90;;;;;;6133568;29;20397;-83
2022/01/26 01:08:20;;;;;;;11.48;6.13;;;;;;;;;;6133974;29;20055;-82
2022/01/26 01:11:21;;;;;;;10.35;6.30;;;-1.10;99.90;;;;;;6149702;28;20055;-85
2022/01/26 01:14:23;;;;;;;10.63;7.10;;;-1.30;99.90;;;;;;6149338;29;20057;-85
2022/01/26 01:17:35;;;;;;;11.93;6.97;;;0.30;99.90;;;;;;6133183;29;20470;-80
2022/01/26 01:21:18;;;;;;;11.82;7.10;;;0.00;99.90;;;;;;6135141;29;20061;-84
2022/01/26 01:30:49;;;;;;;13.27;6.82;;;-1.90;99.90;;;;;;6149160;29;20035;-84
2022/01/26 01:33:51;;;;;;;10.93;6.63;;;0.40;99.90;;;;;;6148800;28;20035;-81
2022/01/26 01:36:53;;;;;;;10.70;6.53;;;-0.10;99.90;;;;;;6148636;29;20036;-82
2022/01/26 01:39:54;;;;;;;9.32;5.88;;;-1.90;99.90;;;;;;6148076;29;20473;-81
2022/01/26 01:42:54;;;;;;;12.52;6.43;;;-1.50;99.90;;;;;;6148507;29;20031;-84
2022/01/26 01:45:56;;;;;;;11.27;6.50;;;-0.50;99.90;;;;;;6132135;29;20033;-80
2022/01/26 01:48:56;;;;;;;13.38;7.47;;;-1.60;99.90;;;;;;6148534;29;20035;-85
2022/01/26 01:52:01;;;;;;;11.77;7.50;;;-0.70;99.90;;;;;;6148069;29;20035;-81
2022/01/26 01:55:04;;;;;;;11.77;7.13;;;-1.90;99.90;;;;;;6148398;28;20034;-82
2022/01/26 01:58:05;;;;;;;11.93;7.03;;;-1.90;99.90;;;;;;6148006;29;20031;-81
2022/01/26 02:01:06;;;;;;;13.70;6.93;;;-0.80;99.90;;;;;;6131613;29;20117;-82
2022/01/26 02:04:07;;;;;;;9.50;6.60;;;-1.90;99.90;;;;;;6148015;29;20031;-81
2022/01/26 02:07:10;;;;;;;13.15;6.60;;;-1.00;99.90;;;;;;6130948;28;20430;-80
2022/01/26 02:10:10;;;;;;;15.73;7.43;;;-0.90;99.90;;;;;;6148005;29;20672;-80
2022/01/26 02:13:25;;;;;;;11.65;6.30;;;-1.40;99.90;;;;;;6131518;28;20051;-80
2022/01/26 02:52:48;;;;;;;15.80;7.57;;;-2.00;99.90;;;;;;6146726;28;20118;-79
2022/01/26 02:55:53;;;;;;;11.98;6.97;;;-1.60;99.90;;;;;;6147465;28;20113;-79
2022/01/26 02:59:12;;;;;;;13.20;7.07;;;-1.90;99.90;;;;;;6147082;28;20038;-81
2022/01/26 03:05:34;;;;;;;13.70;7.10;;;-0.70;99.90;;;;;;6146658;28;20473;-81
2022/01/26 03:08:40;;;;;;;13.68;7.75;;;-2.10;99.90;;;;;;6146717;28;20094;-80
2022/01/26 03:11:43;;;;;;;12.07;6.60;;;-2.60;99.90;;;;;;6146361;28;20155;-79
2022/01/26 03:14:55;;;;;;;11.68;6.72;;;-0.70;99.90;;;;;;6146330;29;20446;-80
2022/01/26 03:21:15;;;;;;;8.80;5.93;;;-1.90;99.90;;;;;;6147041;28;20050;-80
2022/01/26 03:37:01;;;;;;;12.15;6.95;;;;;;;;;;6146239;28;20038;-81
2022/01/26 03:40:11;;;;;;;11.27;7.20;;;-2.50;99.90;;;;;;6146023;28;20078;-80
2022/01/26 03:43:12;;;;;;;12.20;7.72;;;-2.60;99.90;;;;;;6130977;29;20031;-80
2022/01/26 03:46:12;;;;;;;14.52;7.85;;;-2.70;99.90;;;;;;6147231;29;20035;-80
2022/01/26 03:49:13;;;;;;;15.27;7.25;;;-0.20;99.90;;;;;;6145497;29;20028;-80
2022/01/26 03:52:14;;;;;;;12.23;8.02;;;-2.70;99.90;;;;;;6129536;29;20097;-83
2022/01/26 03:55:14;;;;;;;13.40;7.20;;;-3.10;99.90;;;;;;6129371;29;20042;-80
2022/01/26 03:58:15;;;;;;;15.57;10.50;;;-3.10;99.90;;;;;;6145840;29;20042;-79
2022/01/26 04:01:16;;;;;;;13.82;7.40;;;-2.90;99.90;;;;;;6145340;28;20046;-80
2022/01/26 04:04:16;;;;;;;14.32;10.73;;;-3.10;99.90;;;;;;6145975;29;20488;-83
2022/01/26 04:07:17;;;;;;;12.80;6.82;;;-2.90;99.90;;;;;;6113612;29;20043;-80
2022/01/26 04:10:30;;;;;;;10.07;6.60;;;-2.80;99.90;;;;;;6145008;28;20062;-80
2022/01/26 04:13:30;;;;;;;;;;;-4.70;99.90;;;;;;6139153;28;20054;-80
2022/01/26 04:16:31;;;;;;;15.90;9.20;;;-1.70;99.90;;;;;;6136782;28;19993;-80
2022/01/26 04:19:35;;;;;;;14.88;9.95;;;-1.30;99.90;;;;;;6137197;28;20492;-80
2022/01/26 04:22:49;;;;;;;15.80;9.57;;;-0.30;99.90;;;;;;6137544;28;20114;-80
2022/01/26 04:25:51;;;;;;;16.27;8.82;;;-1.70;99.90;;;;;;6155538;28;20033;-85
2022/01/26 04:28:57;;;;;;;13.45;7.93;;;;;;;;;;6153232;28;20488;-79
2022/01/26 04:31:59;;;;;;;13.82;7.95;;;-2.90;99.90;;;;;;6142807;28;20505;-80
2022/01/26 04:35:00;;;;;;;17.10;9.17;;;-2.40;99.90;;;;;;6141655;28;20070;-79
2022/01/26 04:41:28;;;;;;;26.15;13.00;;;-3.10;99.90;;;;;;6159151;28;20117;-81
2022/01/26 04:44:39;;;;;;;19.02;10.40;;;-3.20;99.90;;;;;;6143341;28;20031;-80
2022/01/26 04:47:39;;;;;;;52.20;21.48;;;-2.70;99.90;;;;;;6158638;28;20026;-79
2022/01/26 04:50:40;;;;;;;46.17;20.60;;;-0.90;99.90;;;;;;6157455;28;20045;-80
2022/01/26 04:53:41;;;;;;;17.85;10.95;;;-2.60;99.90;;;;;;6156967;28;20034;-80
2022/01/26 04:56:41;;;;;;;15.20;8.95;;;-3.20;99.90;;;;;;6157889;28;20468;-79
2022/01/26 04:59:42;;;;;;;12.55;7.95;;;-3.40;99.90;;;;;;6157061;28;20031;-79
2022/01/26 05:02:42;;;;;;;20.38;11.52;;;-1.80;99.90;;;;;;6157391;28;20034;-78
2022/01/26 05:05:43;;;;;;;21.10;11.40;;;-3.50;99.90;;;;;;6140758;28;20046;-81
2022/01/26 05:08:44;;;;;;;20.70;10.73;;;-3.50;99.90;;;;;;6140923;28;20031;-80
2022/01/26 05:11:47;;;;;;;13.63;9.02;;;-3.30;99.90;;;;;;6139900;28;20046;-80
2022/01/26 05:14:49;;;;;;;12.70;7.75;;;-1.40;99.90;;;;;;6141139;28;20045;-81
2022/01/26 05:17:49;;;;;;;11.77;7.05;;;-3.40;99.90;;;;;;6141884;28;20058;-80
2022/01/26 05:20:51;;;;;;;15.13;8.68;;;-3.30;99.90;;;;;;6140329;28;20531;-83
2022/01/26 05:23:51;;;;;;;25.08;13.45;;;-3.50;99.90;;;;;;6156731;28;20042;-79
2022/01/26 05:26:52;;;;;;;22.42;12.85;;;-2.20;99.90;;;;;;6156613;28;20476;-80
2022/01/26 05:29:52;;;;;;;21.67;13.15;;;-3.50;99.90;;;;;;6156673;28;20031;-84
2022/01/26 05:32:53;;;;;;;31.67;13.52;;;-3.60;99.90;;;;;;6156347;28;20046;-82
2022/01/26 05:35:54;;;;;;;23.42;13.45;;;-3.70;99.90;;;;;;6140329;28;20041;-79
2022/01/26 05:38:54;;;;;;;19.52;11.63;;;-3.60;99.90;;;;;;6156395;28;20603;-80
2022/01/26 05:41:56;;;;;;;17.38;10.35;;;-3.20;99.90;;;;;;6155792;28;20042;-79
2022/01/26 05:45:02;;;;;;;13.32;8.77;;;-3.60;99.90;;;;;;6156598;28;20085;-82
2022/01/26 05:48:08;;;;;;;17.42;9.32;;;-2.70;99.90;;;;;;6156478;28;20031;-80
2022/01/26 05:51:10;;;;;;;16.40;9.85;;;-3.60;99.90;;;;;;6140764;28;20173;-80
2022/01/26 05:54:11;;;;;;;19.05;9.75;;;-3.60;99.90;;;;;;6156097;28;20027;-80
2022/01/26 05:57:11;;;;;;;16.98;11.82;;;-3.70;99.90;;;;;;6156459;28;20038;-82
2022/01/26 06:00:13;;;;;;;22.95;13.93;;;-2.50;99.90;;;;;;6156021;28;20033;-82
2022/01/26 06:03:13;;;;;;;32.22;15.27;;;-3.50;99.90;;;;;;6155312;28;20041;-80
2022/01/26 06:06:15;;;;;;;40.42;17.70;;;-3.50;99.90;;;;;;6155601;28;20461;-78
2022/01/26 06:09:16;;;;;;;37.42;18.95;;;-4.00;99.90;;;;;;6140056;28;20150;-79
2022/01/26 06:12:17;;;;;;;136.68;25.75;;;-3.60;99.90;;;;;;6139374;28;20054;-78
2022/01/26 06:15:17;;;;;;;72.43;22.30;;;-1.60;99.90;;;;;;6155505;28;20485;-82
2022/01/26 06:18:18;;;;;;;37.45;17.83;;;-3.60;99.90;;;;;;6155550;28;20177;-81
2022/01/26 06:21:18;;;;;;;38.83;17.20;;;-3.30;99.90;;;;;;6154253;28;20038;-80
2022/01/26 06:24:19;;;;;;;66.40;19.80;;;-2.00;99.90;;;;;;6155819;28;20039;-78
2022/01/26 06:27:20;;;;;;;39.22;15.60;;;-3.60;99.90;;;;;;6155000;28;20450;-81
2022/01/26 06:30:21;;;;;;;94.30;17.70;;;-3.60;99.90;;;;;;6138895;28;20027;-82
2022/01/26 06:33:22;;;;;;;35.33;15.88;;;-3.80;99.90;;;;;;6138819;28;20126;-81
2022/01/26 06:36:22;;;;;;;64.13;14.40;;;-3.90;99.90;;;;;;6139127;28;20035;-82
2022/01/26 06:39:23;;;;;;;25.73;15.43;;;-4.00;99.90;;;;;;6154707;28;20086;-81
2022/01/26 06:42:28;;;;;;;18.25;12.05;;;-3.70;99.90;;;;;;6154101;28;20145;-79
2022/01/26 06:45:33;;;;;;;19.30;12.85;;;-3.80;99.90;;;;;;6155223;28;20027;-82
2022/01/26 06:48:47;;;;;;;22.63;14.73;;;-4.10;99.90;;;;;;6115462;28;20126;-79
2022/01/26 06:51:48;;;;;;;21.95;13.48;;;-3.90;99.90;;;;;;6156067;28;20050;-79
2022/01/26 06:54:49;;;;;;;20.15;12.75;;;-3.80;99.90;;;;;;6154391;28;20089;-81
2022/01/26 06:57:49;;;;;;;19.77;12.77;;;-3.80;99.90;;;;;;6139359;28;20106;-86
2022/01/26 07:00:50;;;;;;;20.27;12.95;;;-4.20;99.90;;;;;;6138804;28;20030;-80
2022/01/26 07:03:51;;;;;;;21.20;13.15;;;-4.20;99.90;;;;;;6152725;28;20528;-79
2022/01/26 07:06:51;;;;;;;28.33;14.65;;;-4.20;99.90;;;;;;6170594;28;20101;-78
2022/01/26 07:09:52;;;;;;;38.70;17.20;;;-1.20;99.90;;;;;;6137594;28;20038;-79
2022/01/26 07:12:52;;;;;;;36.17;19.30;;;-2.30;99.90;;;;;;6152174;28;20485;-80
2022/01/26 07:22:34;;;;;;;40.85;22.60;;;-3.80;99.90;;;;;;6141230;28;20066;-80
2022/01/26 07:25:35;;;;;;;59.35;25.25;;;-3.40;99.90;;;;;;6153025;28;20026;-78
2022/01/26 07:28:38;;;;;;;47.50;21.95;;;-3.40;99.90;;;;;;6152703;28;20377;-78
2022/01/26 07:31:42;;;;;;;88.47;34.95;;;-3.40;99.90;;;;;;6138068;28;20525;-81
2022/01/26 07:34:44;;;;;;;98.80;22.13;;;-3.60;99.90;;;;;;6154454;28;20091;-81
2022/01/26 07:37:47;;;;;;;66.38;21.40;;;-1.60;99.90;;;;;;6137524;28;20117;-81
2022/01/26 07:40:47;;;;;;;67.38;21.50;;;-3.40;99.90;;;;;;6153588;28;20097;-79
2022/01/26 07:43:48;;;;;;;62.63;22.52;;;-3.40;99.90;;;;;;6152725;28;20050;-81
2022/01/26 07:46:49;;;;;;;51.75;19.70;;;-1.50;99.90;;;;;;6152786;28;20031;-81
2022/01/26 07:49:53;;;;;;;100.65;23.45;;;-1.50;99.90;;;;;;6153983;28;20031;-81
2022/01/26 07:52:54;;;;;;;57.80;21.88;;;-3.30;99.90;;;;;;6153610;28;20081;-79
2022/01/26 07:55:56;;;;;;;81.72;21.40;;;-3.40;99.90;;;;;;6137132;28;20031;-79
2022/01/26 07:58:58;;;;;;;38.28;22.13;;;-3.40;99.90;;;;;;6137027;28;20078;-82
2022/01/26 08:01:58;;;;;;;43.43;24.53;;;-2.40;99.90;;;;;;6153104;28;20038;-79
2022/01/26 08:04:59;;;;;;;103.00;25.83;;;-3.00;99.90;;;;;;6151775;28;20117;-80
2022/01/26 08:07:59;;;;;;;93.70;21.52;;;-3.10;99.90;;;;;;6136637;28;20027;-79
2022/01/26 08:11:00;;;;;;;55.00;24.05;;;-2.90;99.90;;;;;;6152596;28;20047;-79
2022/01/26 08:14:01;;;;;;;65.30;24.45;;;-2.10;99.90;;;;;;6136599;28;20031;-80
2022/01/26 08:17:03;;;;;;;55.63;27.45;;;-2.90;99.90;;;;;;6136169;28;20034;-80
2022/01/26 08:20:05;;;;;;;57.45;25.02;;;-2.80;99.90;;;;;;6136134;28;20492;-80
2022/01/26 08:23:06;;;;;;;64.22;26.25;;;-2.70;99.90;;;;;;6136759;28;20043;-80
2022/01/26 08:26:07;;;;;;;142.57;29.23;;;-1.90;99.90;;;;;;6135513;28;20039;-80
2022/01/26 08:29:14;;;;;;;109.47;26.95;;;-1.80;99.90;;;;;;6152178;28;20054;-79
2022/01/26 08:32:15;;;;;;;67.47;23.05;;;-2.50;99.90;;;;;;6153341;28;20038;-79
2022/01/26 08:35:16;;;;;;;63.13;26.02;;;-2.60;99.90;;;;;;6152638;28;20077;-79
2022/01/26 08:38:16;;;;;;;130.88;28.00;;;-2.10;99.90;;;;;;6152569;28;20061;-80
2022/01/26 08:41:17;;;;;;;72.95;25.58;;;-2.50;99.90;;;;;;6152765;28;20034;-80
2022/01/26 08:44:18;;;;;;;159.45;29.27;;;-2.40;99.90;;;;;;6152320;28;20038;-81
2022/01/26 08:47:18;;;;;;;70.30;32.45;;;-2.70;99.90;;;;;;6135832;28;20031;-79
2022/01/26 08:50:19;;;;;;;87.70;26.20;;;-2.50;99.90;;;;;;6136036;28;20033;-82
2022/01/26 08:53:20;;;;;;;47.58;26.13;;;-1.50;99.90;;;;;;6152079;28;20043;-79
2022/01/26 08:56:20;;;;;;;54.03;26.80;;;-2.60;99.90;;;;;;6136497;28;20031;-80
2022/01/26 08:59:22;;;;;;;64.25;26.70;;;-2.00;99.90;;;;;;6151518;28;20121;-80
2022/01/26 09:02:23;;;;;;;58.58;26.42;;;-0.20;99.90;;;;;;6152166;28;20553;-80
2022/01/26 09:05:23;;;;;;;167.38;30.30;;;-1.00;99.90;;;;;;6151987;28;20035;-81
2022/01/26 09:08:26;;;;;;;66.78;26.73;;;-1.60;99.90;;;;;;6151242;28;20035;-80
2022/01/26 09:11:26;;;;;;;45.85;25.83;;;-1.60;99.90;;;;;;6152151;28;20543;-81
2022/01/26 09:14:29;;;;;;;70.90;24.70;;;-1.30;99.90;;;;;;6152272;28;20093;-81
2022/01/26 09:17:32;;;;;;;43.38;25.90;;;-0.70;99.90;;;;;;6140874;28;20027;-81
2022/01/26 09:20:38;;;;;;;54.47;25.45;;;-1.00;99.90;;;;;;6140751;28;20057;-80
2022/01/26 09:23:38;;;;;;;55.15;25.23;;;-1.20;99.90;;;;;;6156492;28;20125;-80
2022/01/26 09:26:39;;;;;;;44.60;25.65;;;0.70;99.90;;;;;;6156151;28;20404;-80
2022/01/26 09:29:40;;;;;;;56.45;26.70;;;-1.30;99.90;;;;;;6140414;28;20031;-81
2022/01/26 09:32:41;;;;;;;51.15;25.73;;;-0.60;99.90;;;;;;6156459;28;20053;-80
2022/01/26 09:35:41;;;;;;;94.53;28.83;;;-1.30;99.90;;;;;;6156368;28;20169;-81
2022/01/26 09:38:42;;;;;;;55.45;28.10;;;-1.30;99.90;;;;;;6156197;28;20672;-81
2022/01/26 09:41:44;;;;;;;50.95;27.02;;;-0.80;99.90;;;;;;6140095;28;20058;-80
2022/01/26 09:44:45;;;;;;;50.60;26.73;;;-0.40;99.90;;;;;;6139879;28;20409;-79
2022/01/26 09:47:46;;;;;;;49.65;27.48;;;-1.10;99.90;;;;;;6139901;28;20033;-83
2022/01/26 09:50:53;;;;;;;49.33;27.02;;;-1.30;99.90;;;;;;6155267;28;20118;-82
2022/01/26 09:54:01;;;;;;;49.60;27.35;;;0.60;99.90;;;;;;6156637;28;20023;-79
2022/01/26 09:57:04;;;;;;;51.95;27.83;;;-1.20;99.90;;;;;;6156387;28;20389;-80
2022/01/26 10:00:05;;;;;;;;;;;-1.10;99.90;;;;;;6140357;28;20031;-82
2022/01/26 10:03:05;;;;;;;51.63;26.75;;;-1.00;99.90;;;;;;6139480;28;20011;-77
2022/01/26 10:06:07;;;;;;;54.47;29.05;;;0.20;99.90;;;;;;6155350;28;20477;-81
2022/01/26 10:09:39;;;;;;;56.90;29.27;;;-1.00;99.90;;;;;;6139354;28;20393;-81
2022/01/26 10:16:30;;;;;;;49.70;26.55;;;-0.80;99.90;;;;;;6157751;28;20027;-84
2022/01/26 10:19:28;;;;;;;50.85;26.70;;;0.20;99.90;;;;;;6158742;28;20058;-82
2022/01/26 10:22:30;;;;;;;49.67;27.52;;;1.10;99.90;;;;;;6138872;28;20035;-81
2022/01/26 10:25:31;;;;;;;59.97;27.90;;;0.00;99.90;;;;;;6138997;28;20483;-81
2022/01/26 10:28:45;;;;;;;46.78;26.98;;;-1.20;99.90;;;;;;6152880;28;20038;-79
2022/01/26 10:31:45;;;;;;;50.70;26.48;;;0.20;99.90;;;;;;6153940;28;20046;-82
2022/01/26 10:34:57;;;;;;;47.40;27.05;;;-1.00;99.90;;;;;;6138603;28;20038;-80
2022/01/26 10:37:58;;;;;;;44.85;26.20;;;-0.90;99.90;;;;;;6138759;28;20034;-80
2022/01/26 10:41:00;;;;;;;46.45;24.60;;;-1.40;99.90;;;;;;6138559;28;20093;-80
2022/01/26 10:44:02;;;;;;;51.80;25.42;;;0.00;99.90;;;;;;6154948;28;20397;-79
2022/01/26 10:47:05;;;;;;;50.47;25.42;;;-0.60;99.90;;;;;;6155006;28;20031;-80
2022/01/26 10:50:44;;;;;;;44.70;25.10;;;-0.60;99.90;;;;;;6137425;28;20038;-81
2022/01/26 10:53:56;;;;;;;62.92;35.40;;;-0.10;99.90;;;;;;6156978;28;20501;-79
2022/01/26 10:56:57;;;;;;;43.55;24.17;;;-0.30;99.90;;;;;;6138800;28;20045;-79
2022/01/26 10:59:58;;;;;;;42.38;24.83;;;-0.10;99.90;;;;;;6154345;28;20031;-77
2022/01/26 11:02:58;;;;;;;42.38;25.10;;;-0.70;99.90;;;;;;6154270;28;20082;-78
2022/01/26 11:06:00;;;;;;;42.47;24.45;;;-0.60;99.90;;;;;;6154371;28;20041;-78
2022/01/26 11:09:10;;;;;;;42.05;23.23;;;0.10;99.90;;;;;;6153609;28;20051;-79
2022/01/26 11:12:12;;;;;;;44.05;25.08;;;-0.50;99.90;;;;;;6153030;28;20346;-79
2022/01/26 11:15:15;;;;;;;42.70;24.50;;;1.20;99.90;;;;;;6137171;28;20031;-79
2022/01/26 11:18:21;;;;;;;48.58;25.40;;;-0.10;99.90;;;;;;6153689;28;20085;-80
2022/01/26 11:21:36;;;;;;;45.72;24.83;;;0.90;99.90;;;;;;6137929;28;20027;-80
2022/01/26 11:24:47;;;;;;;48.22;25.13;;;0.40;99.90;;;;;;6137509;28;20035;-78
2022/01/26 11:27:47;;;;;;;42.72;23.73;;;0.50;99.90;;;;;;6153461;28;20023;-81
2022/01/26 11:30:49;;;;;;;39.08;24.15;;;1.30;99.90;;;;;;6136836;28;20085;-79
2022/01/26 11:33:50;;;;;;;43.35;25.20;;;1.60;99.90;;;;;;6137236;28;20034;-81
2022/01/26 11:36:51;;;;;;;42.42;24.92;;;0.10;99.90;;;;;;6153901;28;20030;-81
2022/01/26 11:46:37;;;;;;;42.78;24.92;;;0.60;99.90;;;;;;6155883;28;20496;-79
2022/01/26 11:49:40;;;;;;;68.97;35.70;;;1.20;99.90;;;;;;6137380;28;20069;-79
2022/01/26 11:52:44;;;;;;;45.20;29.75;;;0.80;99.90;;;;;;6137153;28;20050;-79
2022/01/26 11:55:58;;;;;;;43.03;24.05;;;1.80;99.90;;;;;;6137624;28;20428;-79
2022/01/26 11:58:58;;;;;;;43.83;25.05;;;0.20;99.90;;;;;;6154367;28;20034;-80
2022/01/26 12:02:08;;;;;;;40.63;23.90;;;1.20;99.90;;;;;;6153056;28;20042;-80
2022/01/26 12:05:11;;;;;;;39.95;23.95;;;0.60;99.90;;;;;;6153819;28;20366;-81
2022/01/26 12:08:14;;;;;;;43.65;26.10;;;0.60;99.90;;;;;;6137259;28;20122;-81
2022/01/26 12:11:16;;;;;;;38.03;24.00;;;0.60;99.90;;;;;;6151818;28;20054;-80
2022/01/26 12:14:20;;;;;;;39.58;24.35;;;0.70;99.90;;;;;;6135233;28;20093;-80
2022/01/26 12:17:25;;;;;;;42.13;25.20;;;2.30;99.90;;;;;;6152252;28;20031;-81
2022/01/26 12:37:04;;;;;;;41.85;27.25;;;1.30;99.90;;;;;;6151713;28;20377;-80
2022/01/26 12:43:39;;;;;;;44.10;27.75;;;0.90;99.90;;;;;;6154101;28;20070;-81
2022/01/26 12:46:41;;;;;;;49.28;27.70;;;1.00;99.90;;;;;;6135144;28;20663;-80
2022/01/26 12:49:42;;;;;;;50.50;29.05;;;1.10;99.90;;;;;;6151613;28;20512;-82
2022/01/26 12:52:51;;;;;;;50.33;27.98;;;1.20;99.90;;;;;;6155024;28;20047;-83
2022/01/26 12:55:59;;;;;;;55.95;31.05;;;1.00;99.90;;;;;;6139609;28;20031;-80
2022/01/26 12:59:11;;;;;;;67.13;35.67;;;1.00;99.90;;;;;;6154675;28;20496;-83
2022/01/26 13:02:12;;;;;;;52.10;30.60;;;1.00;99.90;;;;;;6155558;28;20050;-81
2022/01/26 13:05:14;;;;;;;51.22;28.58;;;2.70;99.90;;;;;;6138732;28;20274;-81
2022/01/26 13:08:15;;;;;;;57.65;30.63;;;1.20;99.90;;;;;;6139439;28;20054;-81
2022/01/26 13:11:35;;;;;;;54.33;31.00;;;2.80;99.90;;;;;;6113593;28;1200048;-81
2022/01/26 13:17:54;;;;;;;47.40;28.65;;;0.90;99.90;;;;;;6156149;28;20495;-81
2022/01/26 14:00:38;;;;;;;50.40;28.27;;;0.70;99.90;;;;;;5682643;30;20139;-81
2022/01/26 14:03:39;;;;;;;48.20;27.77;;;0.70;99.90;;;;;;5667065;31;20045;-79
2022/01/26 14:06:47;;;;;;;54.38;30.10;;;0.40;99.90;;;;;;5689307;31;20550;-78
2022/01/26 14:09:47;;;;;;;52.83;30.00;;;3.30;99.90;;;;;;5702575;31;20104;-78
2022/01/26 14:12:49;;;;;;;52.55;29.13;;;0.80;99.90;;;;;;5694088;31;20068;-77
2022/01/26 14:15:53;;;;;;;53.22;28.80;;;2.10;99.90;;;;;;5741856;30;20450;-78
2022/01/26 14:19:06;;;;;;;47.55;29.05;;;0.80;99.90;;;;;;5776451;30;20176;-78
2022/01/26 14:28:19;;;;;;;56.65;29.10;;;0.60;99.90;;;;;;6049402;29;20005;-78
2022/01/26 15:11:52;;;;;;;60.35;29.92;;;0.20;99.90;;;;;;6123736;29;20039;-79
2022/01/26 15:33:42;;;;;;;48.55;29.15;;;-0.10;99.90;;;;;;6120611;29;20055;-79
2022/01/26 15:40:21;;;;;;;52.53;28.70;;;-0.60;99.90;;;;;;6121484;29;20478;-78
2022/01/26 15:59:34;;;;;;;60.22;32.40;;;-0.40;99.90;;;;;;6121208;29;20031;-78
2022/01/26 16:06:06;;;;;;;60.13;31.42;;;0.40;99.90;;;;;;6120797;29;20470;-80
2022/01/26 16:12:53;;;;;;;57.60;30.85;;;0.60;99.90;;;;;;6129665;28;20145;-81
2022/01/26 16:26:22;;;;;;;58.15;31.45;;;-0.30;99.90;;;;;;6071640;29;20040;-78
2022/01/26 16:26:38;;;;;;;58.72;31.60;;;-0.30;99.90;;;;;;6050854;29;20043;-78
2022/01/26 18:06:37;;;;;;;56.50;29.48;;;-1.20;99.90;;;;;;6147006;28;20122;-80
2022/01/26 18:51:22;;;;;;;50.35;27.20;;;-0.80;99.90;;;;;;6146001;28;20043;-80
2022/01/26 18:54:34;;;;;;;61.08;33.25;;;0.20;99.90;;;;;;6146417;29;20540;-80
2022/01/26 18:57:34;;;;;;;51.05;29.00;;;-0.90;99.90;;;;;;6145215;28;20106;-81
2022/01/26 19:00:35;;;;;;;47.97;26.45;;;-0.40;99.90;;;;;;6145365;29;20035;-81
2022/01/26 19:03:36;;;;;;;53.33;27.65;;;-0.70;99.90;;;;;;6146483;28;20086;-84
2022/01/26 19:06:42;;;;;;;48.80;27.77;;;0.40;99.90;;;;;;6146615;28;20044;-81
2022/01/26 19:09:46;;;;;;;48.38;26.70;;;-1.10;99.90;;;;;;6146030;28;20039;-80
2022/01/26 19:12:49;;;;;;;61.53;33.42;;;1.20;99.90;;;;;;6122535;29;20142;-79
2022/01/26 19:15:52;;;;;;;60.00;34.03;;;-1.10;99.90;;;;;;6122484;29;20028;-82
2022/01/26 19:22:39;;;;;;;60.20;33.08;;;-1.10;99.90;;;;;;6124282;29;20125;-82
2022/01/26 19:25:44;;;;;;;54.47;27.95;;;-1.60;99.90;;;;;;6122734;29;20038;-81
2022/01/26 19:28:55;;;;;;;53.85;29.25;;;-0.70;99.90;;;;;;6123093;29;20027;-81
2022/01/26 19:45:57;;;;;;;58.55;28.88;;;-1.10;99.90;;;;;;6064673;29;20040;-79
2022/01/26 19:52:14;;;;;;;56.00;29.80;;;-1.20;99.90;;;;;;6044116;29;20648;-79
2022/01/26 19:55:16;;;;;;;63.08;29.63;;;-1.20;99.90;;;;;;6056411;29;20037;-81
2022/01/26 19:58:16;;;;;;;61.15;29.88;;;0.30;99.90;;;;;;6046392;29;20036;-81
2022/01/26 20:01:17;;;;;;;54.38;29.52;;;-1.10;99.90;;;;;;6058434;29;20036;-79
2022/01/26 20:04:18;;;;;;;59.67;31.25;;;-1.10;99.90;;;;;;6060586;29;20542;-79
2022/01/26 20:07:24;;;;;;;54.17;31.05;;;-1.20;99.90;;;;;;6058339;29;20032;-81
2022/01/26 20:10:30;;;;;;;64.90;32.38;;;-1.70;99.90;;;;;;6059723;29;20033;-81
2022/01/26 20:13:36;;;;;;;56.88;29.17;;;-1.20;99.90;;;;;;6079773;29;20040;-79
2022/01/26 20:16:36;;;;;;;55.42;29.77;;;-1.30;99.90;;;;;;6106461;29;20486;-80
2022/01/26 20:19:37;;;;;;;54.20;29.90;;;-1.40;99.90;;;;;;6121177;29;20068;-79
2022/01/26 20:22:39;;;;;;;56.33;31.10;;;-0.20;99.90;;;;;;6120905;29;20036;-79
2022/01/26 20:25:40;;;;;;;62.13;30.60;;;0.90;99.90;;;;;;6121026;29;20075;-79
2022/01/26 20:28:42;;;;;;;61.72;30.73;;;-1.40;99.90;;;;;;6120535;29;20036;-80
2022/01/26 20:31:43;;;;;;;54.90;27.38;;;-0.60;99.90;;;;;;6104808;29;20051;-79
2022/01/26 20:34:44;;;;;;;53.33;28.50;;;-0.40;99.90;;;;;;6120795;29;20446;-79
2022/01/26 20:37:44;;;;;;;59.90;30.45;;;0.10;99.90;;;;;;6104706;29;20087;-81
2022/01/26 20:40:45;;;;;;;57.28;30.05;;;-1.60;99.90;;;;;;6104960;29;20606;-80
2022/01/26 20:43:46;;;;;;;57.85;30.15;;;-1.60;99.90;;;;;;6120126;29;20115;-81
2022/01/26 20:46:47;;;;;;;70.30;29.95;;;-2.30;99.90;;;;;;6104651;29;20027;-82
2022/01/26 20:49:50;;;;;;;61.55;27.90;;;0.60;99.90;;;;;;6120712;29;20032;-81
2022/01/26 20:52:52;;;;;;;52.45;28.23;;;-1.40;99.90;;;;;;6105186;29;20055;-80
2022/01/26 20:55:52;;;;;;;58.10;29.00;;;0.00;99.90;;;;;;6120491;29;20470;-79
2022/01/26 20:58:53;;;;;;;55.15;28.30;;;-1.70;99.90;;;;;;6105007;29;20043;-78
2022/01/26 21:01:54;;;;;;;52.97;28.45;;;-1.80;99.90;;;;;;6105050;29;20035;-79
2022/01/26 21:04:54;;;;;;;54.83;28.10;;;-1.70;99.90;;;;;;6120802;29;20035;-80
2022/01/26 21:07:58;;;;;;;54.03;28.45;;;-0.60;99.90;;;;;;6104716;29;20032;-80
2022/01/26 21:11:01;;;;;;;55.83;29.70;;;0.40;99.90;;;;;;6130351;28;20059;-81
2022/01/26 21:14:02;;;;;;;52.20;29.35;;;0.30;99.90;;;;;;6157552;28;20121;-81
2022/01/26 21:17:03;;;;;;;51.95;26.88;;;-1.50;99.90;;;;;;6118244;28;20030;-81
2022/01/26 21:20:05;;;;;;;51.08;26.70;;;-1.40;99.90;;;;;;6140889;28;20031;-80
2022/01/26 21:23:06;;;;;;;55.00;26.40;;;-1.40;99.90;;;;;;6140057;28;20039;-85
2022/01/26 21:26:07;;;;;;;48.28;26.88;;;0.50;99.90;;;;;;6156249;28;20035;-81
2022/01/26 21:29:08;;;;;;;51.70;25.95;;;-1.20;99.90;;;;;;6139760;28;20034;-83
2022/01/26 21:32:08;;;;;;;44.00;24.60;;;1.10;99.90;;;;;;6155180;28;20535;-78
2022/01/26 21:35:10;;;;;;;43.35;24.52;;;-0.80;99.90;;;;;;6155797;28;21152;-79
2022/01/26 21:38:11;;;;;;;47.75;25.95;;;-1.30;99.90;;;;;;6140282;28;20081;-80
2022/01/26 21:41:12;;;;;;;42.92;25.00;;;-1.10;99.90;;;;;;6139311;28;20033;-83
2022/01/26 21:44:13;;;;;;;45.20;24.65;;;-2.10;99.90;;;;;;6155281;28;20023;-81
2022/01/26 21:47:13;;;;;;;47.25;26.10;;;0.30;99.90;;;;;;6140732;28;20042;-82
2022/01/26 21:50:14;;;;;;;53.63;24.40;;;-2.30;99.90;;;;;;6155297;28;20090;-83
2022/01/26 21:53:17;;;;;;;46.10;25.05;;;-0.10;99.90;;;;;;6155936;28;20042;-83
2022/01/26 21:56:19;;;;;;;52.45;26.20;;;-1.80;99.90;;;;;;6139081;28;20035;-82
2022/01/26 21:59:20;;;;;;;;;;;-1.90;99.90;;;;;;6122641;28;20129;-80
2022/01/26 22:02:20;;;;;;;50.05;25.98;;;-0.30;99.90;;;;;;6141487;28;20276;-81
2022/01/26 22:05:22;;;;;;;46.00;25.38;;;-2.00;99.90;;;;;;6140874;28;20362;-82
2022/01/26 22:08:22;;;;;;;56.80;27.38;;;-2.00;99.90;;;;;;6125380;28;20524;-84
2022/01/26 22:11:23;;;;;;;55.97;26.83;;;-2.20;99.90;;;;;;6138954;28;20073;-82
2022/01/26 22:14:25;;;;;;;52.47;26.65;;;-1.90;99.90;;;;;;6141175;28;20920;-82
2022/01/26 22:17:25;;;;;;;49.63;26.73;;;-1.80;99.90;;;;;;6140268;28;20532;-81
2022/01/26 22:20:26;;;;;;;47.22;25.55;;;0.40;99.90;;;;;;6140760;28;20027;-82
2022/01/26 22:23:27;;;;;;;46.30;25.48;;;0.10;99.90;;;;;;6155803;28;20034;-80
2022/01/26 22:26:31;;;;;;;44.00;24.77;;;-1.80;99.90;;;;;;6156237;28;20031;-82
2022/01/26 22:29:31;;;;;;;40.38;23.35;;;-0.30;99.90;;;;;;6141274;28;20473;-82
2022/01/26 22:32:32;;;;;;;49.60;25.70;;;-2.00;99.90;;;;;;6154358;28;20041;-83
2022/01/26 22:35:33;;;;;;;46.92;24.13;;;-1.60;99.90;;;;;;6154919;28;20469;-82
2022/01/26 22:38:33;;;;;;;48.90;23.52;;;0.70;99.90;;;;;;6138089;28;20027;-80
2022/01/26 22:41:34;;;;;;;43.10;23.77;;;-0.50;99.90;;;;;;6123020;28;20035;-83